x

Buoy I01 - Eastern Maine Shelf (44034) Wave Buoy

9:04am - Fri 12th Feb 2016 All times are EST. -5 hours from GMT.

  • Sig Wave height 4.9ft
  • Peak Period 6s
  • Wind
    18mph, 27mph gusts
  • Sea Temp 41°f
  • 空気 Temp 10°f
  • Sea Pressure 1018.4mb
  • Buoy I01 - Eastern Maine Shelf
  • Buoy I01 - Eastern Maine Shelf

More Historic Weather Station data

Upgrade to MSW Pro to gain access to the past 30 days of data for over 8000 Wavebouys and Weather Stations around the globe.

Join Pro

Comparision Forecast

View Surf forecast
   
Fri 02/12 9:04am 5ft 6s 18 27 mph 1018.4mb 41f 10f
8:04am 5ft 6s 20 29 mph 1018.3mb 41f 9f
7:04am  -   -  18 27 mph 1017.2mb 41f 10f
6:04am 5ft 6s 16 22 mph 1016.5mb 41f 9f
5:04am 5.5ft 11s 18 25 mph 1015.2mb 41f 10f
4:04am 5ft 4s 20 27 mph 1014.2mb 42f 10f
3:04am 5ft 6s 20 27 mph 1012.8mb 42f 11f
2:04am 5ft 4s 18 27 mph 1011.5mb 42f 13f
1:04am 5.5ft 11s 25 29 mph 1010.3mb 42f 15f
12:04am 4ft 4s 27 31 mph 1009.4mb 42f 17f
Thu 02/11 10:04pm 4.5ft 4s 29 36 mph 1007.1mb 42f 22f
9:04pm  -   -  29 36 mph 1006mb 42f 24f
8:04pm 5.5ft 11s 29 34 mph 1005.1mb 42f 26f
7:04pm 5ft 11s 22 29 mph 1004.4mb 42f 28f
6:04pm 5ft 11s 16 22 mph 1003.8mb 42f 29f
5:04pm 4.5ft 11s 13 18 mph 1003.2mb 42f 28f
4:04pm 5ft 11s 11 16 mph 1002.9mb 43f 29f
3:04pm 5ft 11s 9 13 mph 1002.4mb 43f 28f
2:04pm 5ft 11s 11 16 mph 1001.6mb 43f 28f
1:04pm 4.5ft 11s 11 18 mph 1001.6mb 43f 28f
12:04pm 5ft 11s 11 16 mph 1001.9mb 42f 27f
11:04am  -   -  11 16 mph 1002.6mb 42f 27f
10:04am 4.5ft 8s 16 20 mph 1002.4mb 42f 27f
9:04am 3ft 5s 16 22 mph 1002.2mb 42f 27f
8:04am 7ft 11s 20 25 mph 1001.9mb 42f 28f
7:04am 6ft 11s 27 31 mph 1001.1mb 42f 29f
6:04am 5ft 11s 18 20 mph 1000.8mb 42f 32f
5:04am 5.5ft 11s 13 18 mph 1000.2mb 42f 33f
4:04am 4.5ft 11s 9 11 mph 999.7mb 42f 34f
3:04am 5ft 11s 9 11 mph 999.5mb 42f 35f
2:04am 4.5ft 11s 11 16 mph 999.7mb 42f 35f
1:04am 6ft 11s 11 16 mph 999.4mb 41f 35f
12:04am 5ft 11s 16 20 mph 999.6mb 41f 34f
Wed 02/10 11:04pm  -   -  9 11 mph 999.9mb 41f 34f
10:04pm 4.5ft 11s 7 9 mph 1000.4mb 41f 34f
9:04pm  -   -  7 9 mph 1000.8mb 41f 34f
8:04pm 5.5ft 11s 4 7 mph 1001.1mb 42f 33f
7:04pm 7ft 16s 9 13 mph 1001.5mb 42f 32f
6:04pm 6ft 11s 7 9 mph 1001.6mb 42f 32f
5:04pm 6.5ft 11s 7 9 mph 1001mb 42f 31f
4:04pm 5ft 11s 4 7 mph 1000.8mb 42f 31f
3:04pm 3.5ft 11s 4 7 mph 1000.4mb 41f 30f
2:04pm 4.5ft 11s 4 9 mph 1000.5mb 42f 30f
1:04pm 3.5ft 11s 4
mph
1000.8mb 41f 29f
12:04pm 4ft 11s 2 4 mph 1001.6mb 41f 29f
11:04am 3.5ft 11s 4 7 mph 1002.3mb 41f 29f
10:04am 3ft 11s 7 9 mph 1002.9mb 41f 28f
9:04am 3ft 11s 4 9 mph 1003.1mb 41f 27f
8:04am 3.5ft 11s 9 11 mph - 41f 26f
7:04am 3ft 11s 4 9 mph - 41f 24f
6:04am  -   -  9 11 mph - 41f 24f
5:04am 4.5ft 11s 9 13 mph - 41f 24f
4:04am 4.5ft 11s 11 18 mph - 41f 24f
3:04am 4.5ft 11s 9 16 mph - 41f 25f
2:04am 4.5ft 11s 11 16 mph - 42f 25f
1:04am  -   -  11 13 mph - 43f 25f
12:04am  -   -  11 18 mph - 43f 26f
Tue 02/09 11:04pm  -   -  9 13 mph - 43f 26f
10:04pm  -   -  11 16 mph - 43f 26f
9:04pm 6.5ft 11s 13 16 mph - 43f 26f
8:04pm 2ft 3s 13 18 mph - 42f 26f
7:04pm 2ft 5s 16 20 mph - 42f 26f
6:04pm 1.6ft 3s 13 18 mph - 42f 27f
5:04pm  -   -  16 18 mph - 42f 26f
4:04pm  -   -  16 22 mph - 43f 27f
3:04pm 11.5ft 16s 16 18 mph - 43f 26f
2:04pm 12ft 16s 11 16 mph - 43f 25f
1:04pm 12.5ft 16s 11 16 mph - 43f 25f
12:04pm  -   -  11 16 mph - 43f 24f
11:04am 3.5ft 5s 13 20 mph - 43f 24f
10:04am 5ft 5s 13 16 mph - 43f 23f
9:04am  -   -  16 20 mph - 42f 23f
8:04am  -   -  18 22 mph - 42f 23f
7:04am 6ft 6s 18 25 mph - 42f 24f
6:04am 7ft 6s 22 29 mph - 42f 24f
5:04am 7ft 6s 27 34 mph - 42f 24f
4:04am 6.5ft 6s 27 31 mph - 42f 23f
3:04am 9ft 11s 27 34 mph - 42f 23f
2:04am 5.5ft 5s 29 36 mph 1001.2mb 42f 23f
1:04am 8.5ft 8s 31 38 mph 1001.9mb 42f 24f
12:04am 11ft 11s 31 38 mph 1002.4mb 42f 24f
Mon 02/08 11:04pm 11ft 11s 29 38 mph 1002.6mb 42f 24f
10:04pm 12ft 8s 31 38 mph 1002.7mb 42f 24f
9:04pm 11ft 11s 31 38 mph 1003.7mb 43f 24f
8:04pm 12ft 8s 31 40 mph 1004.3mb 42f 24f
7:04pm 12ft 8s 36 43 mph 1005.1mb 42f 25f
6:04pm 13ft 11s 34 40 mph 1005.9mb 42f 25f
5:04pm 11ft 8s 36 45 mph 1006.2mb 42f 25f
4:04pm 13ft 8s 36 43 mph 1005.9mb 43f 25f